x

Central Caribbean - 210 Nm Sse Of Kingston, Jamaica (42058) Wave Buoy

11:50 - Tue 7th Jul 2015 All times are EST. -5 hours from GMT.

  • Sig Wave height 8.5ft
  • Swell Direction
  • Peak Period 8s
  • Average Period 6s
  • Wind
    25mph, 29mph gusts
  • Sea Temp 82°f
  • Air Temp 80°f
  • Sea Pressure 1014.7mb
  • Central Caribbean - 210 Nm Sse Of Kingston, Jamaica
  • Central Caribbean - 210 Nm Sse Of Kingston, Jamaica

More Historic Weather Station data

Upgrade to MSW Pro to gain access to the past 30 days of data for over 8000 Wavebouys and Weather Stations around the globe.

Join Pro

Comparision Forecast

View Surf forecast
   
mar. 07/07 11:50 8.5ft 8s 6s 25 29 mph 1014.7mb 82f 80f
10:50 8ft 8s 6s 22 29 mph 1014.5mb 82f 82f
9:50 9ft 8s 6s 22 29 mph 1014.6mb 82f 82f
8:50 8.5ft 8s 6s 22 29 mph 1014.5mb 82f 82f
7:50 8.5ft 8s 6s 25 29 mph 1014.2mb 82f 82f
6:50 8ft 8s 6s 22 27 mph 1013.6mb 82f 82f
5:50 8ft 9s 6s 22 29 mph 1013.4mb 82f 82f
4:50 8ft 8s 6s 20 27 mph 1013mb 82f 82f
3:50 8.5ft 8s 6s 25 29 mph 1012.6mb 82f 82f
2:50 8.5ft 8s 6s 22 27 mph 1012.8mb 82f 82f
1:50 9ft 9s 6s 25 31 mph 1012.8mb 82f 82f
12:50 9ft 9s 6s 25 29 mph 1013.3mb 82f 82f
lun. 07/06 11:50 9ft 8s 6s 27 31 mph 1013.8mb 82f 82f
10:50 8.5ft 8s 6s 27 31 mph 1014.7mb 82f 82f
9:50 9ft 8s 6s 25 31 mph 1014.3mb 82f 82f
8:50 9ft 9s 6s 27 31 mph 1014mb 82f 82f
7:50 8ft 8s 6s 25 29 mph 1013.8mb 82f 82f
6:50 9ft 8s 6s 25 31 mph 1013mb 82f 82f
5:50 8ft 9s 6s 25 31 mph 1012.3mb 82f 82f
4:50 8.5ft 7s 6s 27 31 mph 1012.3mb 82f 82f
3:50 9ft 9s 6s 25 29 mph 1012.7mb 82f 83f
2:50 9ft 9s 6s 25 31 mph 1012.9mb 82f 82f
1:50 9ft 9s 6s 25 31 mph 1013.4mb 82f 83f
12:50 8.5ft 8s 6s 25 27 mph 1013.9mb 82f 83f
11:50 10ft 9s 6s 27 31 mph 1014.3mb 82f 83f
10:50 9ft 9s 6s 25 29 mph 1014.9mb 82f 83f
9:50 9.5ft 9s 6s 25 29 mph 1015mb 82f 83f
8:50 9.5ft 9s 6s 27 31 mph 1014.9mb 82f 83f
7:50 11ft 8s 7s 27 31 mph 1014.8mb 82f 83f
6:50 11ft 9s 7s 27 31 mph 1014.3mb 82f 82f
5:50 12ft 9s 7s 27 34 mph 1013.6mb 82f 82f
4:50 11.5ft 9s 7s 27 31 mph 1013.4mb 82f 82f
3:50 12ft 9s 7s 27 31 mph 1013.5mb 82f 82f
2:50 11ft 9s 6s 29 34 mph 1013.5mb 82f 82f
1:50 10.5ft 9s 7s 29 34 mph 1013.7mb 82f 82f
12:50 11.5ft 9s 7s 29 36 mph 1013.8mb 82f 82f
dim. 07/05 11:50 11ft 8s 7s 31 38 mph 1014.4mb 82f 82f
10:50 11ft 10s 6s 29 36 mph 1014.8mb 83f 83f
9:50 11ft 9s 7s 27 31 mph 1014.5mb 83f 83f
8:50 11ft 9s 7s 27 34 mph 1014.3mb 83f 83f
7:50 11ft 9s 6s 31 38 mph 1013.6mb 83f 83f
6:50 10.5ft 9s 6s 31 38 mph 1013.1mb 83f 83f
5:50 10.5ft 9s 6s 29 36 mph 1012.7mb 83f 83f
4:50 11.5ft 9s 7s 29 36 mph 1012.2mb 83f 83f
3:50 10ft 9s 6s 27 34 mph 1012.5mb 83f 83f
2:50 10.5ft 9s 7s 27 31 mph 1013.3mb 83f 83f
1:50 11ft 9s 6s 29 34 mph 1013.5mb 83f 83f
12:50 11.5ft 9s 7s 29 34 mph 1013.8mb 83f 83f
11:50 11.5ft 9s 7s 27 34 mph 1014.4mb 83f 83f
10:50 11ft 9s 7s 29 36 mph 1014.6mb 83f 83f
9:50 12ft 9s 7s 29 38 mph 1014.3mb 83f 83f
8:50 12ft 9s 7s 29 34 mph 1014.6mb 83f 83f
7:50 12ft 9s 7s 29 36 mph 1014.1mb 83f 83f
6:50 12ft 9s 7s 29 34 mph 1013.4mb 83f 83f
5:50 12ft 9s 7s 31 36 mph 1012.9mb 83f 82f
4:50 13ft 9s 7s 29 36 mph 1012.3mb 83f 83f
3:50 12.5ft 9s 7s 31 38 mph 1012.1mb 83f 83f
2:50 11ft 9s 6s 31 38 mph 1011.9mb 83f 83f
1:50 11.5ft 9s 6s 31 38 mph 1012mb 83f 83f
12:50 12ft 9s 7s 31 40 mph 1012.1mb 83f 83f
sam. 07/04 11:50 11ft 8s 7s 31 38 mph 1012.5mb 83f 83f
10:50 12ft 9s 7s 29 36 mph 1012.6mb 83f 83f
9:50 11ft 8s 6s 31 36 mph 1012.7mb 83f 83f
8:50 11ft 8s 6s 31 38 mph 1012.3mb 83f 83f
7:50 11ft 9s 7s 29 36 mph 1011.7mb 83f 83f
6:50 12.5ft 8s 7s 29 40 mph 1011.2mb 83f 83f
5:50 12ft 8s 7s 29 36 mph 1010.9mb 83f 83f
4:50 12.5ft 8s 7s 31 40 mph 1010.2mb 83f 83f
3:50 12ft 9s 7s 31 38 mph 1009.7mb 83f 83f
2:50 12ft 8s 7s 29 36 mph 1010.2mb 83f 83f
1:50 13ft 9s 7s 29 38 mph 1011mb 83f 83f
12:50 11ft 9s 7s 29 34 mph 1011.7mb 83f 83f
11:50 12.5ft 9s 7s 31 36 mph 1012.1mb 83f 83f
10:50 12ft 9s 7s 29 36 mph 1012.5mb 83f 83f
9:50 11.5ft 9s 7s 31 38 mph 1012.6mb 83f 83f
8:50 12ft 9s 7s 29 36 mph 1012.6mb 83f 83f
7:50 12.5ft 9s 7s 31 38 mph 1012.3mb 83f 83f
6:50 11ft 9s 7s 34 40 mph 1011.8mb 83f 83f
5:50 11ft 9s 6s 29 38 mph 1011.8mb 83f 83f
4:50 12ft 9s 7s 29 38 mph 1011.9mb 83f 83f
3:50 12.5ft 8s 7s 27 31 mph 1011.7mb 83f 83f
2:50 12ft 8s 7s 27 34 mph 1011.2mb 83f 83f
1:50 11ft 9s 7s 31 36 mph 1010.8mb 83f 83f
12:50 11ft 9s 7s 29 36 mph 1010.8mb 83f 82f
ven. 07/03 11:50 11ft 8s 6s 31 38 mph 1011.3mb 83f 83f
10:50 11.5ft 8s 6s 31 38 mph 1011.9mb 83f 83f
9:50 11ft 9s 6s 31 38 mph 1011.7mb 82f 83f
8:50 12ft 9s 7s 34 38 mph 1011.1mb 82f 82f
7:50 12ft 9s 7s 31 40 mph 1010.6mb 82f 83f
6:50 11.5ft 8s 6s 31 38 mph 1010.1mb 82f 82f